createdAt,value
2024-02-24T00:09:49.331Z,13.60
2024-02-24T00:19:56.960Z,10.50
2024-02-24T00:30:04.343Z,10.60
2024-02-24T00:40:13.647Z,8.30
2024-02-24T00:50:20.650Z,8.20
2024-02-24T01:00:27.856Z,7.00
2024-02-24T01:10:34.993Z,7.00
2024-02-24T01:20:42.352Z,8.50
2024-02-24T01:30:50.349Z,7.70
2024-02-24T01:40:57.591Z,7.30
2024-02-24T01:51:05.687Z,7.50
2024-02-24T02:01:12.956Z,6.60
2024-02-24T02:11:20.406Z,8.00
2024-02-24T02:21:28.796Z,7.20
2024-02-24T02:31:35.934Z,6.00
2024-02-24T02:41:43.011Z,6.00
2024-02-24T02:51:50.089Z,6.40
2024-02-24T03:02:00.160Z,8.30
2024-02-24T03:12:07.482Z,6.40
2024-02-24T03:22:14.775Z,6.40
2024-02-24T03:32:22.145Z,5.80
2024-02-24T03:42:29.175Z,5.90
2024-02-24T03:52:36.033Z,7.60
2024-02-24T04:02:41.684Z,5.60
2024-02-24T04:12:49.214Z,4.90
2024-02-24T04:22:57.015Z,4.80
2024-02-24T04:33:04.265Z,7.20
2024-02-24T04:43:11.384Z,5.20
2024-02-24T04:53:18.440Z,6.10
2024-02-24T05:03:25.677Z,6.40
2024-02-24T05:13:33.400Z,9.00
2024-02-24T05:23:40.705Z,5.60
2024-02-24T05:33:48.963Z,5.80
2024-02-24T05:43:55.931Z,7.20
2024-02-24T05:54:02.961Z,8.30
2024-02-24T06:04:10.033Z,10.00
2024-02-24T06:14:20.124Z,7.50
2024-02-24T06:24:27.914Z,6.00
2024-02-24T06:34:35.525Z,5.30
2024-02-24T06:44:43.052Z,6.40
2024-02-24T06:54:51.585Z,6.00
2024-02-24T07:04:58.921Z,4.70
2024-02-24T07:15:05.437Z,9.00
2024-02-24T07:25:12.637Z,2.00
2024-02-24T07:35:17.612Z,4.60
2024-02-24T07:45:26.851Z,3.20
2024-02-24T08:05:40.066Z,2.80
2024-02-24T08:15:47.263Z,2.60
2024-02-24T08:25:56.530Z,3.00
2024-02-24T08:36:04.562Z,3.30
2024-02-24T08:46:12.416Z,2.00
2024-02-24T08:56:20.424Z,2.20
2024-02-24T09:06:27.022Z,3.20
2024-02-24T09:16:34.094Z,2.40
2024-02-24T09:26:41.521Z,2.80
2024-02-24T09:36:48.738Z,4.20
2024-02-24T09:46:56.969Z,6.40
2024-02-24T09:57:05.564Z,5.30
2024-02-24T10:07:11.756Z,4.50
2024-02-24T10:17:18.081Z,5.10
2024-02-24T10:27:25.339Z,11.50
2024-02-24T10:37:48.539Z,10.00
2024-02-24T10:48:01.534Z,8.50
2024-02-24T10:58:07.729Z,9.10
2024-02-24T11:08:45.362Z,5.30
2024-02-24T11:18:58.908Z,3.80
2024-02-24T11:29:09.317Z,2.90
2024-02-24T11:39:16.604Z,4.00
2024-02-24T11:49:22.807Z,5.40
2024-02-24T11:59:31.638Z,7.90
2024-02-24T12:09:38.706Z,3.20
2024-02-24T12:19:47.481Z,4.00
2024-02-24T12:29:54.732Z,5.50
2024-02-24T12:40:02.145Z,4.40
2024-02-24T12:50:07.333Z,3.20
2024-02-24T13:00:17.434Z,3.20
2024-02-24T13:10:25.083Z,9.00
2024-02-24T13:20:32.489Z,3.20
2024-02-24T13:30:39.922Z,4.80
2024-02-24T13:40:45.827Z,12.70
2024-02-24T13:50:52.971Z,5.20
2024-02-24T14:01:00.547Z,6.20
2024-02-24T14:11:08.326Z,5.30
2024-02-24T14:21:15.437Z,2.90
2024-02-24T14:31:21.761Z,3.80
2024-02-24T14:41:29.357Z,5.20
2024-02-24T14:51:36.717Z,4.70
2024-02-24T15:01:43.798Z,5.00
2024-02-24T15:11:50.950Z,5.20
2024-02-24T15:21:58.293Z,8.20
2024-02-24T15:32:06.927Z,7.50
2024-02-24T15:42:14.087Z,7.70
2024-02-24T15:52:21.678Z,14.20
2024-02-24T16:02:29.238Z,13.80
2024-02-24T16:12:35.279Z,13.30
2024-02-24T16:22:42.487Z,19.40
2024-02-24T16:32:48.555Z,26.70
2024-02-24T16:42:56.603Z,28.40
2024-02-24T16:53:03.280Z,32.20
2024-02-24T17:03:09.655Z,41.60
2024-02-24T17:13:16.187Z,42.70
2024-02-24T17:23:23.447Z,41.10
2024-02-24T17:33:30.687Z,38.80
2024-02-24T17:43:37.797Z,68.40
2024-02-24T17:53:47.099Z,83.30
2024-02-24T18:03:54.367Z,70.70
2024-02-24T18:14:01.788Z,71.90
2024-02-24T18:24:08.212Z,59.00
2024-02-24T18:34:15.076Z,54.00
2024-02-24T18:44:21.894Z,63.00
2024-02-24T18:54:30.564Z,74.10
2024-02-24T19:04:37.933Z,78.00
2024-02-24T19:14:51.834Z,66.10
2024-02-24T19:25:02.540Z,63.10
2024-02-24T19:35:10.583Z,62.30
2024-02-24T19:45:16.851Z,69.80
2024-02-24T19:55:23.818Z,69.40
2024-02-24T20:05:29.769Z,59.90
2024-02-24T20:15:36.923Z,63.00
2024-02-24T20:25:44.223Z,47.00
2024-02-24T20:35:51.601Z,44.10
2024-02-24T20:45:59.110Z,40.10
2024-02-24T20:56:07.196Z,47.90
2024-02-24T21:06:15.187Z,53.30
2024-02-24T21:16:22.568Z,51.50
2024-02-24T21:26:29.839Z,44.10
2024-02-24T21:36:37.150Z,42.60
2024-02-24T21:46:44.461Z,39.20
2024-02-24T21:56:52.111Z,47.50
2024-02-24T22:06:59.562Z,47.50
2024-02-24T22:17:05.339Z,34.90
2024-02-24T22:27:12.552Z,30.30
2024-02-24T22:37:19.054Z,30.70
2024-02-24T22:47:25.179Z,58.30
2024-02-24T22:57:32.456Z,62.90
2024-02-24T23:07:39.717Z,55.90
2024-02-24T23:17:45.902Z,38.90
2024-02-24T23:27:53.118Z,34.50
2024-02-24T23:37:59.048Z,43.50
2024-02-24T23:48:05.576Z,44.90
2024-02-24T23:58:12.670Z,43.70
